sensor_id;sensor_type;location;lat;lon;timestamp;P1;durP1;ratioP1;P2;durP2;ratioP2
28960;SDS011;16068;42.896;20.868;2024-03-06T00:00:21;29.55;;;13.57;;
28960;SDS011;16068;42.896;20.868;2024-03-06T00:03:08;29.13;;;14.57;;
28960;SDS011;16068;42.896;20.868;2024-03-06T00:05:54;26.38;;;14.20;;
28960;SDS011;16068;42.896;20.868;2024-03-06T00:08:40;20.70;;;13.00;;
28960;SDS011;16068;42.896;20.868;2024-03-06T00:11:26;26.80;;;14.27;;
28960;SDS011;16068;42.896;20.868;2024-03-06T00:14:12;21.90;;;13.10;;
28960;SDS011;16068;42.896;20.868;2024-03-06T00:16:59;23.23;;;12.02;;
28960;SDS011;16068;42.896;20.868;2024-03-06T00:19:45;21.98;;;12.80;;
28960;SDS011;16068;42.896;20.868;2024-03-06T00:22:31;23.17;;;12.10;;
28960;SDS011;16068;42.896;20.868;2024-03-06T00:25:17;27.05;;;12.52;;
28960;SDS011;16068;42.896;20.868;2024-03-06T00:28:03;22.58;;;13.10;;
28960;SDS011;16068;42.896;20.868;2024-03-06T00:30:50;22.55;;;12.25;;
28960;SDS011;16068;42.896;20.868;2024-03-06T00:33:35;19.70;;;12.43;;
28960;SDS011;16068;42.896;20.868;2024-03-06T00:36:21;23.35;;;12.80;;
28960;SDS011;16068;42.896;20.868;2024-03-06T00:39:08;23.95;;;11.50;;
28960;SDS011;16068;42.896;20.868;2024-03-06T00:41:53;21.52;;;11.25;;
28960;SDS011;16068;42.896;20.868;2024-03-06T00:44:40;19.80;;;12.57;;
28960;SDS011;16068;42.896;20.868;2024-03-06T00:47:25;23.63;;;12.10;;
28960;SDS011;16068;42.896;20.868;2024-03-06T00:50:12;25.35;;;12.25;;
28960;SDS011;16068;42.896;20.868;2024-03-06T00:52:59;21.60;;;12.45;;
28960;SDS011;16068;42.896;20.868;2024-03-06T00:55:45;27.15;;;12.40;;
28960;SDS011;16068;42.896;20.868;2024-03-06T00:58:31;27.83;;;12.45;;
28960;SDS011;16068;42.896;20.868;2024-03-06T01:01:17;22.38;;;12.70;;
28960;SDS011;16068;42.896;20.868;2024-03-06T01:04:04;21.70;;;12.60;;
28960;SDS011;16068;42.896;20.868;2024-03-06T01:06:51;20.60;;;12.00;;
28960;SDS011;16068;42.896;20.868;2024-03-06T01:09:37;23.77;;;12.43;;
28960;SDS011;16068;42.896;20.868;2024-03-06T01:12:23;20.27;;;11.98;;
28960;SDS011;16068;42.896;20.868;2024-03-06T01:15:10;23.02;;;13.07;;
28960;SDS011;16068;42.896;20.868;2024-03-06T01:17:56;21.63;;;12.07;;
28960;SDS011;16068;42.896;20.868;2024-03-06T01:20:43;25.15;;;13.68;;
28960;SDS011;16068;42.896;20.868;2024-03-06T01:23:29;19.75;;;12.25;;
28960;SDS011;16068;42.896;20.868;2024-03-06T01:26:15;20.00;;;12.30;;
28960;SDS011;16068;42.896;20.868;2024-03-06T01:29:03;22.88;;;13.10;;
28960;SDS011;16068;42.896;20.868;2024-03-06T01:31:49;23.15;;;13.43;;
28960;SDS011;16068;42.896;20.868;2024-03-06T01:34:36;19.85;;;12.30;;
28960;SDS011;16068;42.896;20.868;2024-03-06T01:37:23;23.30;;;13.40;;
28960;SDS011;16068;42.896;20.868;2024-03-06T01:40:09;22.58;;;12.70;;
28960;SDS011;16068;42.896;20.868;2024-03-06T01:42:55;22.70;;;12.98;;
28960;SDS011;16068;42.896;20.868;2024-03-06T01:45:42;26.70;;;13.52;;
28960;SDS011;16068;42.896;20.868;2024-03-06T01:48:28;25.42;;;12.98;;
28960;SDS011;16068;42.896;20.868;2024-03-06T01:51:14;25.08;;;12.80;;
28960;SDS011;16068;42.896;20.868;2024-03-06T01:54:00;25.83;;;12.15;;
28960;SDS011;16068;42.896;20.868;2024-03-06T01:56:49;23.42;;;12.95;;
28960;SDS011;16068;42.896;20.868;2024-03-06T01:59:36;22.75;;;13.07;;
28960;SDS011;16068;42.896;20.868;2024-03-06T02:02:23;20.58;;;13.18;;
28960;SDS011;16068;42.896;20.868;2024-03-06T02:05:09;21.95;;;12.85;;
28960;SDS011;16068;42.896;20.868;2024-03-06T02:07:55;28.48;;;13.60;;
28960;SDS011;16068;42.896;20.868;2024-03-06T02:10:46;21.17;;;13.20;;
28960;SDS011;16068;42.896;20.868;2024-03-06T02:13:33;21.42;;;13.32;;
28960;SDS011;16068;42.896;20.868;2024-03-06T02:16:19;26.48;;;12.57;;
28960;SDS011;16068;42.896;20.868;2024-03-06T02:19:05;22.73;;;12.85;;
28960;SDS011;16068;42.896;20.868;2024-03-06T02:21:52;22.00;;;13.15;;
28960;SDS011;16068;42.896;20.868;2024-03-06T02:24:40;20.63;;;13.10;;
28960;SDS011;16068;42.896;20.868;2024-03-06T02:27:30;20.63;;;13.32;;
28960;SDS011;16068;42.896;20.868;2024-03-06T02:30:19;23.50;;;12.77;;
28960;SDS011;16068;42.896;20.868;2024-03-06T02:33:06;24.70;;;12.90;;
28960;SDS011;16068;42.896;20.868;2024-03-06T02:35:53;22.00;;;12.73;;
28960;SDS011;16068;42.896;20.868;2024-03-06T02:38:40;25.85;;;12.35;;
28960;SDS011;16068;42.896;20.868;2024-03-06T02:41:26;20.27;;;12.25;;
28960;SDS011;16068;42.896;20.868;2024-03-06T02:44:12;22.95;;;12.85;;
28960;SDS011;16068;42.896;20.868;2024-03-06T02:46:58;20.13;;;12.75;;
28960;SDS011;16068;42.896;20.868;2024-03-06T02:49:44;25.42;;;13.00;;
28960;SDS011;16068;42.896;20.868;2024-03-06T02:52:31;21.33;;;12.73;;
28960;SDS011;16068;42.896;20.868;2024-03-06T02:55:17;22.77;;;13.63;;
28960;SDS011;16068;42.896;20.868;2024-03-06T02:58:03;22.50;;;12.95;;
28960;SDS011;16068;42.896;20.868;2024-03-06T03:00:49;25.65;;;13.93;;
28960;SDS011;16068;42.896;20.868;2024-03-06T03:03:35;24.95;;;13.60;;
28960;SDS011;16068;42.896;20.868;2024-03-06T03:06:22;22.75;;;12.73;;
28960;SDS011;16068;42.896;20.868;2024-03-06T03:09:11;20.02;;;12.50;;
28960;SDS011;16068;42.896;20.868;2024-03-06T03:11:57;18.92;;;13.50;;
28960;SDS011;16068;42.896;20.868;2024-03-06T03:14:44;24.88;;;13.68;;
28960;SDS011;16068;42.896;20.868;2024-03-06T03:17:31;25.38;;;13.35;;
28960;SDS011;16068;42.896;20.868;2024-03-06T03:20:24;21.05;;;13.05;;
28960;SDS011;16068;42.896;20.868;2024-03-06T03:23:10;24.02;;;13.13;;
28960;SDS011;16068;42.896;20.868;2024-03-06T03:25:59;22.90;;;13.40;;
28960;SDS011;16068;42.896;20.868;2024-03-06T03:28:46;20.55;;;13.48;;
28960;SDS011;16068;42.896;20.868;2024-03-06T03:31:32;22.15;;;13.45;;
28960;SDS011;16068;42.896;20.868;2024-03-06T03:34:18;32.72;;;13.38;;
28960;SDS011;16068;42.896;20.868;2024-03-06T03:37:07;20.35;;;12.48;;
28960;SDS011;16068;42.896;20.868;2024-03-06T03:39:54;28.73;;;13.88;;
28960;SDS011;16068;42.896;20.868;2024-03-06T03:42:41;23.80;;;13.40;;
28960;SDS011;16068;42.896;20.868;2024-03-06T03:45:29;21.67;;;14.02;;
28960;SDS011;16068;42.896;20.868;2024-03-06T03:48:15;25.95;;;14.20;;
28960;SDS011;16068;42.896;20.868;2024-03-06T03:51:04;24.30;;;14.27;;
28960;SDS011;16068;42.896;20.868;2024-03-06T03:53:52;22.10;;;13.80;;
28960;SDS011;16068;42.896;20.868;2024-03-06T03:56:39;23.90;;;14.50;;
28960;SDS011;16068;42.896;20.868;2024-03-06T03:59:25;22.92;;;14.20;;
28960;SDS011;16068;42.896;20.868;2024-03-06T04:02:13;21.77;;;13.73;;
28960;SDS011;16068;42.896;20.868;2024-03-06T04:04:59;28.90;;;14.57;;
28960;SDS011;16068;42.896;20.868;2024-03-06T04:07:46;24.67;;;15.07;;
28960;SDS011;16068;42.896;20.868;2024-03-06T04:10:32;31.73;;;16.10;;
28960;SDS011;16068;42.896;20.868;2024-03-06T04:13:21;24.50;;;15.85;;
28960;SDS011;16068;42.896;20.868;2024-03-06T04:16:07;23.42;;;14.32;;
28960;SDS011;16068;42.896;20.868;2024-03-06T04:18:53;28.63;;;15.88;;
28960;SDS011;16068;42.896;20.868;2024-03-06T04:21:43;26.08;;;15.23;;
28960;SDS011;16068;42.896;20.868;2024-03-06T04:24:30;31.20;;;16.13;;
28960;SDS011;16068;42.896;20.868;2024-03-06T04:27:16;30.65;;;16.25;;
28960;SDS011;16068;42.896;20.868;2024-03-06T04:30:02;26.15;;;14.60;;
28960;SDS011;16068;42.896;20.868;2024-03-06T04:32:49;21.50;;;13.93;;
28960;SDS011;16068;42.896;20.868;2024-03-06T04:35:35;24.42;;;13.98;;
28960;SDS011;16068;42.896;20.868;2024-03-06T04:38:22;26.23;;;13.95;;
28960;SDS011;16068;42.896;20.868;2024-03-06T04:41:10;25.60;;;13.23;;
28960;SDS011;16068;42.896;20.868;2024-03-06T04:43:56;27.05;;;13.98;;
28960;SDS011;16068;42.896;20.868;2024-03-06T04:46:43;21.75;;;14.23;;
28960;SDS011;16068;42.896;20.868;2024-03-06T04:49:32;29.52;;;14.65;;
28960;SDS011;16068;42.896;20.868;2024-03-06T04:52:20;23.63;;;14.60;;
28960;SDS011;16068;42.896;20.868;2024-03-06T04:55:08;30.90;;;14.25;;
28960;SDS011;16068;42.896;20.868;2024-03-06T04:57:58;24.42;;;14.48;;
28960;SDS011;16068;42.896;20.868;2024-03-06T05:00:45;26.23;;;13.77;;
28960;SDS011;16068;42.896;20.868;2024-03-06T05:03:30;23.83;;;14.18;;
28960;SDS011;16068;42.896;20.868;2024-03-06T05:09:37;23.83;;;13.55;;
28960;SDS011;16068;42.896;20.868;2024-03-06T05:12:42;27.70;;;17.90;;
28960;SDS011;16068;42.896;20.868;2024-03-06T05:15:46;44.65;;;23.55;;
28960;SDS011;16068;42.896;20.868;2024-03-06T05:18:49;51.90;;;26.03;;
28960;SDS011;16068;42.896;20.868;2024-03-06T05:21:53;49.10;;;29.60;;
28960;SDS011;16068;42.896;20.868;2024-03-06T05:24:56;53.13;;;30.52;;
28960;SDS011;16068;42.896;20.868;2024-03-06T05:28:01;55.22;;;29.23;;
28960;SDS011;16068;42.896;20.868;2024-03-06T05:31:13;48.28;;;28.70;;
28960;SDS011;16068;42.896;20.868;2024-03-06T05:34:20;53.60;;;28.25;;
28960;SDS011;16068;42.896;20.868;2024-03-06T05:40:28;76.32;;;40.25;;
28960;SDS011;16068;42.896;20.868;2024-03-06T05:43:31;91.85;;;45.08;;
28960;SDS011;16068;42.896;20.868;2024-03-06T05:46:35;117.15;;;55.05;;
28960;SDS011;16068;42.896;20.868;2024-03-06T05:49:39;82.40;;;42.15;;
28960;SDS011;16068;42.896;20.868;2024-03-06T05:52:42;74.53;;;40.40;;
28960;SDS011;16068;42.896;20.868;2024-03-06T05:55:45;85.35;;;44.17;;
28960;SDS011;16068;42.896;20.868;2024-03-06T05:58:49;88.90;;;43.80;;
28960;SDS011;16068;42.896;20.868;2024-03-06T06:01:35;91.88;;;48.30;;
28960;SDS011;16068;42.896;20.868;2024-03-06T06:04:21;99.32;;;49.20;;
28960;SDS011;16068;42.896;20.868;2024-03-06T06:07:07;91.35;;;46.10;;
28960;SDS011;16068;42.896;20.868;2024-03-06T06:09:54;97.13;;;45.88;;
28960;SDS011;16068;42.896;20.868;2024-03-06T06:12:39;88.97;;;45.80;;
28960;SDS011;16068;42.896;20.868;2024-03-06T06:15:26;102.82;;;48.20;;
28960;SDS011;16068;42.896;20.868;2024-03-06T06:18:12;92.60;;;47.15;;
28960;SDS011;16068;42.896;20.868;2024-03-06T06:20:59;87.53;;;44.72;;
28960;SDS011;16068;42.896;20.868;2024-03-06T06:23:45;81.38;;;44.17;;
28960;SDS011;16068;42.896;20.868;2024-03-06T06:26:31;82.68;;;43.65;;
28960;SDS011;16068;42.896;20.868;2024-03-06T06:29:18;74.70;;;40.67;;
28960;SDS011;16068;42.896;20.868;2024-03-06T06:32:05;86.82;;;50.08;;
28960;SDS011;16068;42.896;20.868;2024-03-06T06:34:51;93.50;;;52.65;;
28960;SDS011;16068;42.896;20.868;2024-03-06T06:37:37;94.63;;;55.67;;
28960;SDS011;16068;42.896;20.868;2024-03-06T06:40:24;77.57;;;43.65;;
28960;SDS011;16068;42.896;20.868;2024-03-06T06:43:10;73.75;;;40.65;;
28960;SDS011;16068;42.896;20.868;2024-03-06T06:45:56;171.48;;;95.85;;
28960;SDS011;16068;42.896;20.868;2024-03-06T06:48:43;158.27;;;93.13;;
28960;SDS011;16068;42.896;20.868;2024-03-06T06:51:29;106.95;;;60.40;;
28960;SDS011;16068;42.896;20.868;2024-03-06T06:54:15;73.10;;;40.47;;
28960;SDS011;16068;42.896;20.868;2024-03-06T06:57:02;65.00;;;36.65;;
28960;SDS011;16068;42.896;20.868;2024-03-06T06:59:49;59.65;;;33.60;;
28960;SDS011;16068;42.896;20.868;2024-03-06T07:02:36;60.60;;;33.15;;
28960;SDS011;16068;42.896;20.868;2024-03-06T07:05:24;56.55;;;33.97;;
28960;SDS011;16068;42.896;20.868;2024-03-06T07:08:10;296.73;;;179.82;;
28960;SDS011;16068;42.896;20.868;2024-03-06T07:10:56;185.63;;;103.68;;
28960;SDS011;16068;42.896;20.868;2024-03-06T07:13:43;68.07;;;38.85;;
28960;SDS011;16068;42.896;20.868;2024-03-06T07:16:29;55.42;;;33.17;;
28960;SDS011;16068;42.896;20.868;2024-03-06T07:19:15;59.85;;;34.22;;
28960;SDS011;16068;42.896;20.868;2024-03-06T07:22:02;58.08;;;35.25;;
28960;SDS011;16068;42.896;20.868;2024-03-06T07:24:48;63.90;;;35.08;;
28960;SDS011;16068;42.896;20.868;2024-03-06T07:27:34;66.22;;;36.72;;
28960;SDS011;16068;42.896;20.868;2024-03-06T07:30:20;65.53;;;34.03;;
28960;SDS011;16068;42.896;20.868;2024-03-06T07:33:09;65.97;;;33.38;;
28960;SDS011;16068;42.896;20.868;2024-03-06T07:35:55;65.68;;;31.90;;
28960;SDS011;16068;42.896;20.868;2024-03-06T07:38:43;60.72;;;29.73;;
28960;SDS011;16068;42.896;20.868;2024-03-06T07:41:29;48.83;;;26.95;;
28960;SDS011;16068;42.896;20.868;2024-03-06T07:44:15;69.47;;;33.03;;
28960;SDS011;16068;42.896;20.868;2024-03-06T07:47:01;60.13;;;32.63;;
28960;SDS011;16068;42.896;20.868;2024-03-06T07:49:47;45.97;;;26.98;;
28960;SDS011;16068;42.896;20.868;2024-03-06T07:52:33;45.75;;;26.35;;
28960;SDS011;16068;42.896;20.868;2024-03-06T07:55:19;53.35;;;26.25;;
28960;SDS011;16068;42.896;20.868;2024-03-06T07:58:07;51.58;;;24.20;;
28960;SDS011;16068;42.896;20.868;2024-03-06T08:00:55;40.60;;;21.75;;
28960;SDS011;16068;42.896;20.868;2024-03-06T08:03:42;38.08;;;21.50;;
28960;SDS011;16068;42.896;20.868;2024-03-06T08:06:28;43.05;;;22.80;;
28960;SDS011;16068;42.896;20.868;2024-03-06T08:09:15;44.53;;;23.85;;
28960;SDS011;16068;42.896;20.868;2024-03-06T08:12:02;41.95;;;23.85;;
28960;SDS011;16068;42.896;20.868;2024-03-06T08:14:48;45.35;;;23.17;;
28960;SDS011;16068;42.896;20.868;2024-03-06T08:17:34;43.67;;;24.60;;
28960;SDS011;16068;42.896;20.868;2024-03-06T08:20:21;54.40;;;29.85;;
28960;SDS011;16068;42.896;20.868;2024-03-06T08:23:07;45.58;;;27.10;;
28960;SDS011;16068;42.896;20.868;2024-03-06T08:25:55;59.53;;;29.30;;
28960;SDS011;16068;42.896;20.868;2024-03-06T08:28:41;61.88;;;30.55;;
28960;SDS011;16068;42.896;20.868;2024-03-06T08:31:27;56.00;;;30.38;;
28960;SDS011;16068;42.896;20.868;2024-03-06T08:34:13;48.13;;;28.17;;
28960;SDS011;16068;42.896;20.868;2024-03-06T08:36:59;50.58;;;25.17;;
28960;SDS011;16068;42.896;20.868;2024-03-06T08:39:46;55.75;;;24.20;;
28960;SDS011;16068;42.896;20.868;2024-03-06T08:42:32;53.20;;;25.13;;
28960;SDS011;16068;42.896;20.868;2024-03-06T08:45:18;53.15;;;28.63;;
28960;SDS011;16068;42.896;20.868;2024-03-06T08:48:04;44.35;;;26.70;;
28960;SDS011;16068;42.896;20.868;2024-03-06T08:50:52;47.97;;;25.15;;
28960;SDS011;16068;42.896;20.868;2024-03-06T08:53:38;43.05;;;21.58;;
28960;SDS011;16068;42.896;20.868;2024-03-06T08:56:24;39.58;;;20.98;;
28960;SDS011;16068;42.896;20.868;2024-03-06T08:59:10;40.58;;;20.77;;
28960;SDS011;16068;42.896;20.868;2024-03-06T09:01:56;33.08;;;19.73;;
28960;SDS011;16068;42.896;20.868;2024-03-06T09:04:43;35.58;;;21.92;;
28960;SDS011;16068;42.896;20.868;2024-03-06T09:07:29;38.83;;;18.92;;
28960;SDS011;16068;42.896;20.868;2024-03-06T09:10:16;35.97;;;18.90;;
28960;SDS011;16068;42.896;20.868;2024-03-06T09:13:02;43.85;;;18.83;;
28960;SDS011;16068;42.896;20.868;2024-03-06T09:15:49;39.95;;;18.13;;
28960;SDS011;16068;42.896;20.868;2024-03-06T09:18:35;31.02;;;18.20;;
28960;SDS011;16068;42.896;20.868;2024-03-06T09:21:22;37.30;;;19.67;;
28960;SDS011;16068;42.896;20.868;2024-03-06T09:24:08;38.53;;;17.23;;
28960;SDS011;16068;42.896;20.868;2024-03-06T09:26:55;41.20;;;17.73;;
28960;SDS011;16068;42.896;20.868;2024-03-06T09:29:42;28.80;;;15.40;;
28960;SDS011;16068;42.896;20.868;2024-03-06T09:32:28;35.33;;;15.70;;
28960;SDS011;16068;42.896;20.868;2024-03-06T09:35:15;33.40;;;17.33;;
28960;SDS011;16068;42.896;20.868;2024-03-06T09:38:03;27.45;;;14.90;;
28960;SDS011;16068;42.896;20.868;2024-03-06T09:40:50;32.85;;;19.60;;
28960;SDS011;16068;42.896;20.868;2024-03-06T09:43:37;34.40;;;18.50;;
28960;SDS011;16068;42.896;20.868;2024-03-06T09:46:23;33.90;;;17.33;;
28960;SDS011;16068;42.896;20.868;2024-03-06T09:49:10;33.95;;;17.70;;
28960;SDS011;16068;42.896;20.868;2024-03-06T09:51:57;34.63;;;17.85;;
28960;SDS011;16068;42.896;20.868;2024-03-06T09:54:44;34.58;;;17.52;;
28960;SDS011;16068;42.896;20.868;2024-03-06T09:57:30;37.55;;;18.23;;
28960;SDS011;16068;42.896;20.868;2024-03-06T10:00:16;34.22;;;18.25;;
28960;SDS011;16068;42.896;20.868;2024-03-06T10:03:07;34.47;;;17.27;;
28960;SDS011;16068;42.896;20.868;2024-03-06T10:05:54;30.67;;;16.63;;
28960;SDS011;16068;42.896;20.868;2024-03-06T10:08:42;34.13;;;17.15;;
28960;SDS011;16068;42.896;20.868;2024-03-06T10:11:29;30.13;;;17.23;;
28960;SDS011;16068;42.896;20.868;2024-03-06T10:14:18;35.00;;;18.00;;
28960;SDS011;16068;42.896;20.868;2024-03-06T10:17:04;28.98;;;17.85;;
28960;SDS011;16068;42.896;20.868;2024-03-06T10:19:50;38.03;;;17.85;;
28960;SDS011;16068;42.896;20.868;2024-03-06T10:22:37;30.38;;;17.42;;
28960;SDS011;16068;42.896;20.868;2024-03-06T10:25:23;31.05;;;18.27;;
28960;SDS011;16068;42.896;20.868;2024-03-06T10:28:10;34.42;;;18.52;;
28960;SDS011;16068;42.896;20.868;2024-03-06T10:31:02;32.65;;;17.95;;
28960;SDS011;16068;42.896;20.868;2024-03-06T10:33:51;31.17;;;18.38;;
28960;SDS011;16068;42.896;20.868;2024-03-06T10:36:38;31.02;;;17.05;;
28960;SDS011;16068;42.896;20.868;2024-03-06T10:39:24;66.82;;;23.20;;
28960;SDS011;16068;42.896;20.868;2024-03-06T10:42:12;33.33;;;18.00;;
28960;SDS011;16068;42.896;20.868;2024-03-06T10:44:59;36.10;;;18.38;;
28960;SDS011;16068;42.896;20.868;2024-03-06T10:47:46;37.95;;;18.80;;
28960;SDS011;16068;42.896;20.868;2024-03-06T10:50:34;30.38;;;17.95;;
28960;SDS011;16068;42.896;20.868;2024-03-06T10:53:26;35.60;;;18.60;;
28960;SDS011;16068;42.896;20.868;2024-03-06T10:56:15;39.38;;;20.20;;
28960;SDS011;16068;42.896;20.868;2024-03-06T10:59:02;32.58;;;18.67;;
28960;SDS011;16068;42.896;20.868;2024-03-06T11:01:48;35.65;;;17.95;;
28960;SDS011;16068;42.896;20.868;2024-03-06T11:04:34;38.55;;;17.95;;
28960;SDS011;16068;42.896;20.868;2024-03-06T11:07:21;29.33;;;15.85;;
28960;SDS011;16068;42.896;20.868;2024-03-06T11:10:07;30.40;;;15.73;;
28960;SDS011;16068;42.896;20.868;2024-03-06T11:12:53;37.33;;;17.83;;
28960;SDS011;16068;42.896;20.868;2024-03-06T11:15:39;31.92;;;16.30;;
28960;SDS011;16068;42.896;20.868;2024-03-06T11:18:46;40.65;;;16.55;;
28960;SDS011;16068;42.896;20.868;2024-03-06T11:21:32;36.13;;;16.30;;
28960;SDS011;16068;42.896;20.868;2024-03-06T11:24:19;25.20;;;14.73;;
28960;SDS011;16068;42.896;20.868;2024-03-06T11:27:06;20.73;;;13.07;;
28960;SDS011;16068;42.896;20.868;2024-03-06T11:30:11;29.92;;;12.98;;
28960;SDS011;16068;42.896;20.868;2024-03-06T11:32:59;27.90;;;14.32;;
28960;SDS011;16068;42.896;20.868;2024-03-06T11:39:14;31.20;;;15.48;;
28960;SDS011;16068;42.896;20.868;2024-03-06T11:42:03;30.70;;;15.02;;
28960;SDS011;16068;42.896;20.868;2024-03-06T11:44:54;33.35;;;14.38;;
28960;SDS011;16068;42.896;20.868;2024-03-06T11:47:58;30.65;;;14.23;;
28960;SDS011;16068;42.896;20.868;2024-03-06T11:50:45;22.67;;;13.55;;
28960;SDS011;16068;42.896;20.868;2024-03-06T11:53:34;25.48;;;13.85;;
28960;SDS011;16068;42.896;20.868;2024-03-06T11:56:21;26.80;;;13.73;;
28960;SDS011;16068;42.896;20.868;2024-03-06T11:59:07;25.80;;;13.45;;
28960;SDS011;16068;42.896;20.868;2024-03-06T12:01:59;30.15;;;14.20;;
28960;SDS011;16068;42.896;20.868;2024-03-06T12:04:50;21.42;;;11.05;;
28960;SDS011;16068;42.896;20.868;2024-03-06T12:07:47;30.77;;;13.05;;
28960;SDS011;16068;42.896;20.868;2024-03-06T12:10:36;17.65;;;10.23;;
28960;SDS011;16068;42.896;20.868;2024-03-06T12:13:23;28.77;;;12.80;;
28960;SDS011;16068;42.896;20.868;2024-03-06T12:16:10;17.58;;;8.82;;
28960;SDS011;16068;42.896;20.868;2024-03-06T12:18:57;18.02;;;9.73;;
28960;SDS011;16068;42.896;20.868;2024-03-06T12:21:46;18.45;;;10.77;;
28960;SDS011;16068;42.896;20.868;2024-03-06T12:24:33;24.05;;;9.80;;
28960;SDS011;16068;42.896;20.868;2024-03-06T12:27:21;17.65;;;8.25;;
28960;SDS011;16068;42.896;20.868;2024-03-06T12:30:10;16.77;;;8.10;;
28960;SDS011;16068;42.896;20.868;2024-03-06T12:32:58;23.42;;;7.85;;
28960;SDS011;16068;42.896;20.868;2024-03-06T12:35:46;13.80;;;6.30;;
28960;SDS011;16068;42.896;20.868;2024-03-06T12:38:33;17.17;;;6.47;;
28960;SDS011;16068;42.896;20.868;2024-03-06T12:41:20;23.25;;;6.88;;
28960;SDS011;16068;42.896;20.868;2024-03-06T12:44:06;16.92;;;6.80;;
28960;SDS011;16068;42.896;20.868;2024-03-06T12:46:54;31.48;;;7.72;;
28960;SDS011;16068;42.896;20.868;2024-03-06T12:49:40;17.25;;;7.05;;
28960;SDS011;16068;42.896;20.868;2024-03-06T12:52:26;14.85;;;5.82;;
28960;SDS011;16068;42.896;20.868;2024-03-06T12:55:13;13.88;;;5.07;;
28960;SDS011;16068;42.896;20.868;2024-03-06T12:58:00;11.43;;;4.10;;
28960;SDS011;16068;42.896;20.868;2024-03-06T13:00:46;15.27;;;4.55;;
28960;SDS011;16068;42.896;20.868;2024-03-06T13:03:32;15.65;;;4.72;;
28960;SDS011;16068;42.896;20.868;2024-03-06T13:06:18;10.32;;;4.75;;
28960;SDS011;16068;42.896;20.868;2024-03-06T13:09:04;16.00;;;6.28;;
28960;SDS011;16068;42.896;20.868;2024-03-06T13:11:50;13.35;;;4.63;;
28960;SDS011;16068;42.896;20.868;2024-03-06T13:14:36;12.35;;;4.22;;
28960;SDS011;16068;42.896;20.868;2024-03-06T13:17:23;10.85;;;4.72;;
28960;SDS011;16068;42.896;20.868;2024-03-06T13:20:10;21.52;;;4.75;;
28960;SDS011;16068;42.896;20.868;2024-03-06T13:22:59;9.10;;;4.22;;
28960;SDS011;16068;42.896;20.868;2024-03-06T13:25:47;20.63;;;4.68;;
28960;SDS011;16068;42.896;20.868;2024-03-06T13:28:34;26.23;;;4.80;;
28960;SDS011;16068;42.896;20.868;2024-03-06T13:31:20;17.77;;;4.70;;
28960;SDS011;16068;42.896;20.868;2024-03-06T13:34:07;26.20;;;4.43;;
28960;SDS011;16068;42.896;20.868;2024-03-06T13:36:53;19.90;;;5.68;;
28960;SDS011;16068;42.896;20.868;2024-03-06T13:39:41;14.82;;;4.32;;
28960;SDS011;16068;42.896;20.868;2024-03-06T13:42:27;15.27;;;4.22;;
28960;SDS011;16068;42.896;20.868;2024-03-06T13:45:13;22.55;;;4.90;;
28960;SDS011;16068;42.896;20.868;2024-03-06T13:48:00;22.25;;;4.93;;
28960;SDS011;16068;42.896;20.868;2024-03-06T13:50:51;13.63;;;4.40;;
28960;SDS011;16068;42.896;20.868;2024-03-06T13:53:37;14.57;;;5.10;;
28960;SDS011;16068;42.896;20.868;2024-03-06T13:56:24;21.85;;;5.53;;
28960;SDS011;16068;42.896;20.868;2024-03-06T13:59:10;19.27;;;4.70;;
28960;SDS011;16068;42.896;20.868;2024-03-06T14:01:57;25.58;;;5.13;;
28960;SDS011;16068;42.896;20.868;2024-03-06T14:04:44;11.77;;;4.78;;
28960;SDS011;16068;42.896;20.868;2024-03-06T14:07:30;13.95;;;5.32;;
28960;SDS011;16068;42.896;20.868;2024-03-06T14:10:17;14.98;;;4.57;;
28960;SDS011;16068;42.896;20.868;2024-03-06T14:13:06;14.95;;;4.63;;
28960;SDS011;16068;42.896;20.868;2024-03-06T14:15:53;13.65;;;5.03;;
28960;SDS011;16068;42.896;20.868;2024-03-06T14:18:39;16.70;;;5.25;;
28960;SDS011;16068;42.896;20.868;2024-03-06T14:21:25;14.52;;;5.30;;
28960;SDS011;16068;42.896;20.868;2024-03-06T14:24:11;19.92;;;5.47;;
28960;SDS011;16068;42.896;20.868;2024-03-06T14:26:57;20.60;;;5.43;;
28960;SDS011;16068;42.896;20.868;2024-03-06T14:29:43;19.77;;;6.53;;
28960;SDS011;16068;42.896;20.868;2024-03-06T14:32:30;28.65;;;15.35;;
28960;SDS011;16068;42.896;20.868;2024-03-06T14:35:17;23.40;;;9.93;;
28960;SDS011;16068;42.896;20.868;2024-03-06T14:38:03;55.00;;;17.40;;
28960;SDS011;16068;42.896;20.868;2024-03-06T14:40:49;324.88;;;19.50;;
28960;SDS011;16068;42.896;20.868;2024-03-06T14:43:35;28.42;;;11.05;;
28960;SDS011;16068;42.896;20.868;2024-03-06T14:46:23;27.63;;;11.98;;
28960;SDS011;16068;42.896;20.868;2024-03-06T14:49:10;32.63;;;11.88;;
28960;SDS011;16068;42.896;20.868;2024-03-06T14:51:56;34.30;;;15.95;;
28960;SDS011;16068;42.896;20.868;2024-03-06T14:54:42;54.22;;;31.30;;
28960;SDS011;16068;42.896;20.868;2024-03-06T14:57:29;27.25;;;11.77;;
28960;SDS011;16068;42.896;20.868;2024-03-06T15:00:15;43.42;;;12.20;;
28960;SDS011;16068;42.896;20.868;2024-03-06T15:03:06;37.95;;;15.43;;
28960;SDS011;16068;42.896;20.868;2024-03-06T15:05:53;19.80;;;9.63;;
28960;SDS011;16068;42.896;20.868;2024-03-06T15:08:40;18.83;;;7.18;;
28960;SDS011;16068;42.896;20.868;2024-03-06T15:11:26;19.27;;;7.25;;
28960;SDS011;16068;42.896;20.868;2024-03-06T15:14:15;21.67;;;6.90;;
28960;SDS011;16068;42.896;20.868;2024-03-06T15:17:03;17.73;;;6.93;;
28960;SDS011;16068;42.896;20.868;2024-03-06T15:19:50;13.82;;;6.15;;
28960;SDS011;16068;42.896;20.868;2024-03-06T15:22:36;14.18;;;5.55;;
28960;SDS011;16068;42.896;20.868;2024-03-06T15:25:27;15.55;;;4.10;;
28960;SDS011;16068;42.896;20.868;2024-03-06T15:28:13;11.88;;;3.90;;
28960;SDS011;16068;42.896;20.868;2024-03-06T15:30:59;9.18;;;3.45;;
28960;SDS011;16068;42.896;20.868;2024-03-06T15:33:49;13.23;;;3.42;;
28960;SDS011;16068;42.896;20.868;2024-03-06T15:36:35;7.13;;;3.22;;
28960;SDS011;16068;42.896;20.868;2024-03-06T15:39:23;8.88;;;3.33;;
28960;SDS011;16068;42.896;20.868;2024-03-06T15:42:09;9.88;;;3.50;;
28960;SDS011;16068;42.896;20.868;2024-03-06T15:44:56;9.32;;;2.90;;
28960;SDS011;16068;42.896;20.868;2024-03-06T15:47:42;9.65;;;3.88;;
28960;SDS011;16068;42.896;20.868;2024-03-06T15:50:30;8.38;;;3.38;;
28960;SDS011;16068;42.896;20.868;2024-03-06T15:53:17;7.85;;;3.30;;
28960;SDS011;16068;42.896;20.868;2024-03-06T15:56:04;8.35;;;3.67;;
28960;SDS011;16068;42.896;20.868;2024-03-06T15:58:50;9.43;;;4.00;;
28960;SDS011;16068;42.896;20.868;2024-03-06T16:01:36;8.50;;;3.83;;
28960;SDS011;16068;42.896;20.868;2024-03-06T16:04:23;6.22;;;3.38;;
28960;SDS011;16068;42.896;20.868;2024-03-06T16:07:08;9.65;;;3.60;;
28960;SDS011;16068;42.896;20.868;2024-03-06T16:09:58;7.80;;;3.53;;
28960;SDS011;16068;42.896;20.868;2024-03-06T16:12:43;8.80;;;3.83;;
28960;SDS011;16068;42.896;20.868;2024-03-06T16:15:29;14.20;;;5.15;;
28960;SDS011;16068;42.896;20.868;2024-03-06T16:18:16;12.80;;;4.75;;